sensor_id;sensor_type;location;lat;lon;timestamp;pressure;altitude;pressure_sealevel;temperature;humidity
74615;BME280;63121;51.458;-0.110;2023-02-15T00:01:39;102567.34;;;7.51;66.17
74615;BME280;63121;51.458;-0.110;2023-02-15T00:04:06;102570.38;;;7.40;67.26
74615;BME280;63121;51.458;-0.110;2023-02-15T00:06:33;102562.47;;;7.33;67.17
74615;BME280;63121;51.458;-0.110;2023-02-15T00:08:58;102569.72;;;7.45;66.86
74615;BME280;63121;51.458;-0.110;2023-02-15T00:11:24;102561.75;;;7.38;66.98
74615;BME280;63121;51.458;-0.110;2023-02-15T00:16:41;102559.97;;;7.35;66.46
74615;BME280;63121;51.458;-0.110;2023-02-15T00:19:08;102549.78;;;7.38;66.56
74615;BME280;63121;51.458;-0.110;2023-02-15T00:21:35;102552.97;;;7.31;66.88
74615;BME280;63121;51.458;-0.110;2023-02-15T00:24:02;102541.97;;;7.35;66.29
74615;BME280;63121;51.458;-0.110;2023-02-15T00:26:28;102545.91;;;7.24;66.86
74615;BME280;63121;51.458;-0.110;2023-02-15T00:28:55;102538.69;;;7.39;66.55
74615;BME280;63121;51.458;-0.110;2023-02-15T00:31:21;102519.59;;;7.31;66.64
74615;BME280;63121;51.458;-0.110;2023-02-15T00:33:47;102512.91;;;7.36;66.23
74615;BME280;63121;51.458;-0.110;2023-02-15T00:36:12;102509.50;;;7.37;66.25
74615;BME280;63121;51.458;-0.110;2023-02-15T00:38:38;102509.63;;;7.40;66.85
74615;BME280;63121;51.458;-0.110;2023-02-15T00:41:06;102508.31;;;7.26;67.34
74615;BME280;63121;51.458;-0.110;2023-02-15T00:43:32;102504.16;;;7.31;66.55
74615;BME280;63121;51.458;-0.110;2023-02-15T00:45:59;102499.41;;;7.43;66.51
74615;BME280;63121;51.458;-0.110;2023-02-15T00:48:24;102503.75;;;7.44;66.12
74615;BME280;63121;51.458;-0.110;2023-02-15T00:50:54;102493.34;;;7.41;66.30
74615;BME280;63121;51.458;-0.110;2023-02-15T00:53:20;102483.88;;;7.39;66.09
74615;BME280;63121;51.458;-0.110;2023-02-15T00:55:45;102483.44;;;7.25;66.59
74615;BME280;63121;51.458;-0.110;2023-02-15T00:58:11;102487.41;;;7.42;66.39
74615;BME280;63121;51.458;-0.110;2023-02-15T01:00:37;102490.72;;;7.38;66.33
74615;BME280;63121;51.458;-0.110;2023-02-15T01:03:04;102492.44;;;7.39;65.93
74615;BME280;63121;51.458;-0.110;2023-02-15T01:05:30;102492.34;;;7.36;66.30
74615;BME280;63121;51.458;-0.110;2023-02-15T01:07:57;102496.75;;;7.40;66.44
74615;BME280;63121;51.458;-0.110;2023-02-15T01:10:23;102491.25;;;7.57;65.79
74615;BME280;63121;51.458;-0.110;2023-02-15T01:12:50;102493.91;;;7.60;65.84
74615;BME280;63121;51.458;-0.110;2023-02-15T01:15:15;102487.00;;;7.57;65.97
74615;BME280;63121;51.458;-0.110;2023-02-15T01:17:41;102480.88;;;7.53;66.22
74615;BME280;63121;51.458;-0.110;2023-02-15T01:20:07;102475.75;;;7.53;66.35
74615;BME280;63121;51.458;-0.110;2023-02-15T01:22:33;102479.59;;;7.68;65.99
74615;BME280;63121;51.458;-0.110;2023-02-15T01:24:58;102478.75;;;7.69;65.88
74615;BME280;63121;51.458;-0.110;2023-02-15T01:27:23;102471.78;;;7.65;65.68
74615;BME280;63121;51.458;-0.110;2023-02-15T01:29:49;102468.47;;;7.69;65.62
74615;BME280;63121;51.458;-0.110;2023-02-15T01:32:14;102464.00;;;7.62;65.55
74615;BME280;63121;51.458;-0.110;2023-02-15T01:34:40;102463.03;;;7.58;65.55
74615;BME280;63121;51.458;-0.110;2023-02-15T01:37:05;102456.16;;;7.57;66.07
74615;BME280;63121;51.458;-0.110;2023-02-15T01:39:30;102456.06;;;7.54;65.74
74615;BME280;63121;51.458;-0.110;2023-02-15T01:41:56;102445.72;;;7.52;65.99
74615;BME280;63121;51.458;-0.110;2023-02-15T01:44:48;102440.56;;;7.51;65.83
74615;BME280;63121;51.458;-0.110;2023-02-15T01:47:33;102434.41;;;7.46;66.00
74615;BME280;63121;51.458;-0.110;2023-02-15T01:52:35;102432.44;;;7.37;66.20
74615;BME280;63121;51.458;-0.110;2023-02-15T01:55:01;102427.81;;;7.25;66.41
74615;BME280;63121;51.458;-0.110;2023-02-15T01:57:28;102432.09;;;7.26;65.99
74615;BME280;63121;51.458;-0.110;2023-02-15T01:59:58;102426.28;;;7.32;65.78
74615;BME280;63121;51.458;-0.110;2023-02-15T02:02:26;102421.22;;;7.35;65.73
74615;BME280;63121;51.458;-0.110;2023-02-15T02:04:57;102416.97;;;7.36;65.43
74615;BME280;63121;51.458;-0.110;2023-02-15T02:07:27;102419.03;;;7.19;66.17
74615;BME280;63121;51.458;-0.110;2023-02-15T02:09:52;102415.00;;;7.27;65.74
74615;BME280;63121;51.458;-0.110;2023-02-15T02:12:19;102409.09;;;7.29;65.70
74615;BME280;63121;51.458;-0.110;2023-02-15T02:14:47;102409.91;;;7.28;65.53
74615;BME280;63121;51.458;-0.110;2023-02-15T02:20:36;102406.88;;;7.13;66.22
74615;BME280;63121;51.458;-0.110;2023-02-15T02:34:29;102380.66;;;7.23;66.16
74615;BME280;63121;51.458;-0.110;2023-02-15T02:39:37;102374.56;;;7.20;66.41
74615;BME280;63121;51.458;-0.110;2023-02-15T02:44:43;102374.44;;;7.15;66.42
74615;BME280;63121;51.458;-0.110;2023-02-15T02:47:19;102384.22;;;7.00;66.82
74615;BME280;63121;51.458;-0.110;2023-02-15T02:49:52;102377.22;;;6.94;66.55
74615;BME280;63121;51.458;-0.110;2023-02-15T02:52:38;102371.09;;;6.90;66.73
74615;BME280;63121;51.458;-0.110;2023-02-15T02:57:59;102372.44;;;6.78;67.35
74615;BME280;63121;51.458;-0.110;2023-02-15T03:00:30;102372.69;;;6.87;67.41
74615;BME280;63121;51.458;-0.110;2023-02-15T03:03:03;102375.56;;;6.96;67.47
74615;BME280;63121;51.458;-0.110;2023-02-15T03:05:34;102372.09;;;6.96;67.04
74615;BME280;63121;51.458;-0.110;2023-02-15T03:08:03;102370.97;;;6.86;67.17
74615;BME280;63121;51.458;-0.110;2023-02-15T03:10:31;102372.63;;;6.84;67.19
74615;BME280;63121;51.458;-0.110;2023-02-15T03:12:59;102370.66;;;6.77;67.30
74615;BME280;63121;51.458;-0.110;2023-02-15T03:15:26;102363.72;;;6.72;67.85
74615;BME280;63121;51.458;-0.110;2023-02-15T03:18:16;102364.78;;;6.79;67.29
74615;BME280;63121;51.458;-0.110;2023-02-15T03:20:44;102364.06;;;6.85;67.49
74615;BME280;63121;51.458;-0.110;2023-02-15T03:23:16;102359.59;;;6.78;67.32
74615;BME280;63121;51.458;-0.110;2023-02-15T03:25:50;102353.28;;;6.66;67.29
74615;BME280;63121;51.458;-0.110;2023-02-15T03:28:20;102347.34;;;6.69;67.65
74615;BME280;63121;51.458;-0.110;2023-02-15T03:30:52;102337.81;;;6.65;66.82
74615;BME280;63121;51.458;-0.110;2023-02-15T03:33:19;102336.94;;;6.64;67.28
74615;BME280;63121;51.458;-0.110;2023-02-15T03:35:50;102335.91;;;6.59;67.26
74615;BME280;63121;51.458;-0.110;2023-02-15T03:38:22;102329.97;;;6.60;67.22
74615;BME280;63121;51.458;-0.110;2023-02-15T03:40:53;102330.72;;;6.56;67.65
74615;BME280;63121;51.458;-0.110;2023-02-15T03:46:17;102326.09;;;6.46;67.63
74615;BME280;63121;51.458;-0.110;2023-02-15T03:48:51;102320.63;;;6.35;67.29
74615;BME280;63121;51.458;-0.110;2023-02-15T03:51:20;102319.13;;;6.42;67.28
74615;BME280;63121;51.458;-0.110;2023-02-15T03:54:01;102320.53;;;6.32;67.40
74615;BME280;63121;51.458;-0.110;2023-02-15T03:56:27;102322.88;;;6.26;68.12
74615;BME280;63121;51.458;-0.110;2023-02-15T03:58:52;102308.69;;;6.36;68.44
74615;BME280;63121;51.458;-0.110;2023-02-15T04:02:27;102310.25;;;6.32;68.07
74615;BME280;63121;51.458;-0.110;2023-02-15T04:04:38;102304.91;;;6.24;68.43
74615;BME280;63121;51.458;-0.110;2023-02-15T04:07:06;102302.91;;;6.16;69.39
74615;BME280;63121;51.458;-0.110;2023-02-15T04:09:32;102295.06;;;6.11;69.76
74615;BME280;63121;51.458;-0.110;2023-02-15T04:12:35;102296.69;;;6.35;68.98
74615;BME280;63121;51.458;-0.110;2023-02-15T04:15:01;102296.50;;;6.30;69.11
74615;BME280;63121;51.458;-0.110;2023-02-15T04:17:45;102298.16;;;6.28;69.49
74615;BME280;63121;51.458;-0.110;2023-02-15T04:20:10;102288.25;;;6.39;69.54
74615;BME280;63121;51.458;-0.110;2023-02-15T04:22:55;102291.56;;;6.35;70.49
74615;BME280;63121;51.458;-0.110;2023-02-15T04:25:38;102284.34;;;6.50;69.28
74615;BME280;63121;51.458;-0.110;2023-02-15T04:28:04;102283.88;;;6.35;70.38
74615;BME280;63121;51.458;-0.110;2023-02-15T04:30:29;102289.03;;;6.36;70.70
74615;BME280;63121;51.458;-0.110;2023-02-15T04:32:54;102288.69;;;6.53;69.93
74615;BME280;63121;51.458;-0.110;2023-02-15T04:35:22;102296.56;;;6.31;70.82
74615;BME280;63121;51.458;-0.110;2023-02-15T04:37:47;102292.03;;;6.50;70.30
74615;BME280;63121;51.458;-0.110;2023-02-15T04:40:14;102284.66;;;6.61;69.81
74615;BME280;63121;51.458;-0.110;2023-02-15T04:42:39;102283.00;;;6.63;69.85
74615;BME280;63121;51.458;-0.110;2023-02-15T04:45:05;102280.31;;;6.58;69.63
74615;BME280;63121;51.458;-0.110;2023-02-15T04:47:31;102283.41;;;6.48;69.95
74615;BME280;63121;51.458;-0.110;2023-02-15T04:49:57;102274.94;;;6.50;69.42
74615;BME280;63121;51.458;-0.110;2023-02-15T04:52:22;102274.53;;;6.65;69.30
74615;BME280;63121;51.458;-0.110;2023-02-15T04:54:48;102270.84;;;6.57;69.82
74615;BME280;63121;51.458;-0.110;2023-02-15T04:57:13;102277.56;;;6.52;71.07
74615;BME280;63121;51.458;-0.110;2023-02-15T04:59:39;102273.22;;;6.49;70.60
74615;BME280;63121;51.458;-0.110;2023-02-15T05:02:04;102276.72;;;6.53;72.10
74615;BME280;63121;51.458;-0.110;2023-02-15T05:04:30;102269.78;;;6.78;71.33
74615;BME280;63121;51.458;-0.110;2023-02-15T05:06:55;102271.88;;;6.62;72.27
74615;BME280;63121;51.458;-0.110;2023-02-15T05:09:20;102272.16;;;7.02;71.11
74615;BME280;63121;51.458;-0.110;2023-02-15T05:11:46;102274.88;;;7.06;70.71
74615;BME280;63121;51.458;-0.110;2023-02-15T05:14:11;102264.09;;;6.88;70.91
74615;BME280;63121;51.458;-0.110;2023-02-15T05:16:37;102259.31;;;7.00;70.73
74615;BME280;63121;51.458;-0.110;2023-02-15T05:19:02;102261.09;;;7.03;70.22
74615;BME280;63121;51.458;-0.110;2023-02-15T05:21:28;102261.41;;;6.85;71.74
74615;BME280;63121;51.458;-0.110;2023-02-15T05:23:53;102263.53;;;7.00;70.92
74615;BME280;63121;51.458;-0.110;2023-02-15T05:26:21;102249.22;;;7.06;70.53
74615;BME280;63121;51.458;-0.110;2023-02-15T05:29:06;102257.66;;;7.04;70.81
74615;BME280;63121;51.458;-0.110;2023-02-15T05:31:31;102250.03;;;7.05;70.84
74615;BME280;63121;51.458;-0.110;2023-02-15T05:33:57;102250.56;;;6.94;71.85
74615;BME280;63121;51.458;-0.110;2023-02-15T05:36:23;102241.81;;;7.19;70.70
74615;BME280;63121;51.458;-0.110;2023-02-15T05:38:48;102248.94;;;7.29;70.04
74615;BME280;63121;51.458;-0.110;2023-02-15T05:41:14;102255.75;;;7.27;70.42
74615;BME280;63121;51.458;-0.110;2023-02-15T05:43:39;102252.38;;;7.28;69.59
74615;BME280;63121;51.458;-0.110;2023-02-15T05:46:05;102245.22;;;7.18;70.34
74615;BME280;63121;51.458;-0.110;2023-02-15T05:48:31;102245.44;;;7.25;70.24
74615;BME280;63121;51.458;-0.110;2023-02-15T05:53:27;102245.31;;;7.21;70.00
74615;BME280;63121;51.458;-0.110;2023-02-15T05:55:53;102234.84;;;7.13;70.11
74615;BME280;63121;51.458;-0.110;2023-02-15T05:58:19;102231.44;;;7.14;70.55
74615;BME280;63121;51.458;-0.110;2023-02-15T06:00:45;102237.41;;;7.13;69.86
74615;BME280;63121;51.458;-0.110;2023-02-15T06:03:10;102243.66;;;7.23;70.18
74615;BME280;63121;51.458;-0.110;2023-02-15T06:05:35;102242.44;;;7.10;69.88
74615;BME280;63121;51.458;-0.110;2023-02-15T06:08:01;102243.88;;;7.30;69.71
74615;BME280;63121;51.458;-0.110;2023-02-15T06:10:26;102247.38;;;7.02;70.43
74615;BME280;63121;51.458;-0.110;2023-02-15T06:12:52;102246.59;;;7.05;70.18
74615;BME280;63121;51.458;-0.110;2023-02-15T06:15:17;102246.91;;;6.87;71.04
74615;BME280;63121;51.458;-0.110;2023-02-15T06:17:42;102243.06;;;7.01;70.15
74615;BME280;63121;51.458;-0.110;2023-02-15T06:20:08;102237.13;;;7.04;69.95
74615;BME280;63121;51.458;-0.110;2023-02-15T06:22:34;102234.50;;;7.01;70.50
74615;BME280;63121;51.458;-0.110;2023-02-15T06:24:59;102242.63;;;6.86;71.22
74615;BME280;63121;51.458;-0.110;2023-02-15T06:27:25;102233.59;;;6.99;70.32
74615;BME280;63121;51.458;-0.110;2023-02-15T06:29:50;102235.19;;;6.95;70.87
74615;BME280;63121;51.458;-0.110;2023-02-15T06:32:15;102236.19;;;7.00;70.45
74615;BME280;63121;51.458;-0.110;2023-02-15T06:34:41;102244.50;;;6.91;71.18
74615;BME280;63121;51.458;-0.110;2023-02-15T06:37:06;102247.38;;;7.02;70.66
74615;BME280;63121;51.458;-0.110;2023-02-15T06:39:33;102242.25;;;7.02;70.78
74615;BME280;63121;51.458;-0.110;2023-02-15T06:41:58;102240.38;;;6.97;70.53
74615;BME280;63121;51.458;-0.110;2023-02-15T06:44:24;102236.84;;;6.93;70.89
74615;BME280;63121;51.458;-0.110;2023-02-15T06:46:49;102233.41;;;6.92;70.86
74615;BME280;63121;51.458;-0.110;2023-02-15T06:49:15;102235.31;;;7.00;70.28
74615;BME280;63121;51.458;-0.110;2023-02-15T06:51:40;102238.66;;;6.97;70.67
74615;BME280;63121;51.458;-0.110;2023-02-15T06:54:05;102240.13;;;6.89;70.70
74615;BME280;63121;51.458;-0.110;2023-02-15T06:56:31;102246.38;;;6.97;70.70
74615;BME280;63121;51.458;-0.110;2023-02-15T06:58:56;102233.88;;;7.09;70.01
74615;BME280;63121;51.458;-0.110;2023-02-15T07:01:22;102241.00;;;7.20;69.80
74615;BME280;63121;51.458;-0.110;2023-02-15T07:03:47;102241.06;;;7.21;69.70
74615;BME280;63121;51.458;-0.110;2023-02-15T07:06:12;102240.09;;;7.18;69.51
74615;BME280;63121;51.458;-0.110;2023-02-15T07:08:38;102248.72;;;7.20;69.16
74615;BME280;63121;51.458;-0.110;2023-02-15T07:11:05;102249.22;;;7.06;69.11
74615;BME280;63121;51.458;-0.110;2023-02-15T07:13:49;102251.78;;;7.06;69.17
74615;BME280;63121;51.458;-0.110;2023-02-15T07:16:15;102245.06;;;7.11;69.18
74615;BME280;63121;51.458;-0.110;2023-02-15T07:18:40;102247.44;;;7.05;68.88
74615;BME280;63121;51.458;-0.110;2023-02-15T07:21:06;102248.00;;;6.94;69.24
74615;BME280;63121;51.458;-0.110;2023-02-15T07:23:34;102260.97;;;6.98;69.21
74615;BME280;63121;51.458;-0.110;2023-02-15T07:26:00;102259.19;;;6.97;69.53
74615;BME280;63121;51.458;-0.110;2023-02-15T07:28:27;102254.72;;;6.90;69.86
74615;BME280;63121;51.458;-0.110;2023-02-15T07:30:52;102261.50;;;6.88;70.08
74615;BME280;63121;51.458;-0.110;2023-02-15T07:33:17;102265.72;;;6.86;70.00
74615;BME280;63121;51.458;-0.110;2023-02-15T07:35:54;102264.03;;;6.86;70.05
74615;BME280;63121;51.458;-0.110;2023-02-15T07:38:20;102265.06;;;6.93;70.01
74615;BME280;63121;51.458;-0.110;2023-02-15T07:40:46;102265.34;;;7.02;70.27
74615;BME280;63121;51.458;-0.110;2023-02-15T07:43:11;102265.53;;;7.08;69.86
74615;BME280;63121;51.458;-0.110;2023-02-15T07:45:37;102264.03;;;7.17;69.85
74615;BME280;63121;51.458;-0.110;2023-02-15T07:48:03;102257.00;;;7.41;70.15
74615;BME280;63121;51.458;-0.110;2023-02-15T07:50:29;102253.88;;;7.53;69.97
74615;BME280;63121;51.458;-0.110;2023-02-15T07:52:54;102250.41;;;7.51;69.90
74615;BME280;63121;51.458;-0.110;2023-02-15T07:55:20;102256.00;;;7.69;70.06
74615;BME280;63121;51.458;-0.110;2023-02-15T07:57:47;102269.44;;;7.92;70.52
74615;BME280;63121;51.458;-0.110;2023-02-15T08:00:14;102269.91;;;8.11;69.93
74615;BME280;63121;51.458;-0.110;2023-02-15T08:02:40;102273.16;;;8.40;68.93
74615;BME280;63121;51.458;-0.110;2023-02-15T08:05:06;102274.81;;;8.38;69.07
74615;BME280;63121;51.458;-0.110;2023-02-15T08:07:32;102267.47;;;8.53;69.33
74615;BME280;63121;51.458;-0.110;2023-02-15T08:09:58;102273.66;;;8.60;68.94
74615;BME280;63121;51.458;-0.110;2023-02-15T08:12:26;102279.81;;;8.68;68.86
74615;BME280;63121;51.458;-0.110;2023-02-15T08:14:52;102276.69;;;8.82;68.30
74615;BME280;63121;51.458;-0.110;2023-02-15T08:17:17;102278.53;;;8.89;68.06
74615;BME280;63121;51.458;-0.110;2023-02-15T08:19:43;102269.31;;;8.99;67.62
74615;BME280;63121;51.458;-0.110;2023-02-15T08:22:12;102271.88;;;9.00;67.96
74615;BME280;63121;51.458;-0.110;2023-02-15T08:24:38;102267.06;;;9.15;67.23
74615;BME280;63121;51.458;-0.110;2023-02-15T08:27:05;102268.00;;;9.21;67.29
74615;BME280;63121;51.458;-0.110;2023-02-15T08:29:32;102264.81;;;9.32;66.65
74615;BME280;63121;51.458;-0.110;2023-02-15T08:32:01;102256.81;;;9.19;67.70
74615;BME280;63121;51.458;-0.110;2023-02-15T08:34:29;102254.63;;;9.39;67.08
74615;BME280;63121;51.458;-0.110;2023-02-15T08:36:56;102257.94;;;9.33;67.12
74615;BME280;63121;51.458;-0.110;2023-02-15T08:39:22;102262.19;;;9.78;65.71
74615;BME280;63121;51.458;-0.110;2023-02-15T08:41:47;102263.53;;;9.56;66.25
74615;BME280;63121;51.458;-0.110;2023-02-15T08:44:14;102255.22;;;9.72;66.13
74615;BME280;63121;51.458;-0.110;2023-02-15T08:46:43;102261.22;;;9.71;65.87
74615;BME280;63121;51.458;-0.110;2023-02-15T08:49:19;102250.88;;;9.70;66.40
74615;BME280;63121;51.458;-0.110;2023-02-15T08:51:45;102245.22;;;9.42;67.08
74615;BME280;63121;51.458;-0.110;2023-02-15T08:54:16;102243.31;;;9.79;66.30
74615;BME280;63121;51.458;-0.110;2023-02-15T08:56:43;102241.78;;;9.92;65.56
74615;BME280;63121;51.458;-0.110;2023-02-15T08:59:17;102246.97;;;9.93;65.52
74615;BME280;63121;51.458;-0.110;2023-02-15T09:01:43;102244.69;;;10.12;65.35
74615;BME280;63121;51.458;-0.110;2023-02-15T09:04:09;102242.00;;;10.04;65.10
74615;BME280;63121;51.458;-0.110;2023-02-15T09:06:36;102240.72;;;10.32;64.29
74615;BME280;63121;51.458;-0.110;2023-02-15T09:09:02;102244.16;;;10.33;64.29
74615;BME280;63121;51.458;-0.110;2023-02-15T09:11:30;102244.81;;;10.21;64.72
74615;BME280;63121;51.458;-0.110;2023-02-15T09:13:58;102240.88;;;10.42;65.08
74615;BME280;63121;51.458;-0.110;2023-02-15T09:16:26;102252.00;;;10.37;65.00
74615;BME280;63121;51.458;-0.110;2023-02-15T09:18:52;102251.91;;;10.31;65.08
74615;BME280;63121;51.458;-0.110;2023-02-15T09:21:20;102254.63;;;10.42;64.56
74615;BME280;63121;51.458;-0.110;2023-02-15T09:23:48;102248.84;;;10.60;64.06
74615;BME280;63121;51.458;-0.110;2023-02-15T09:26:16;102251.41;;;10.58;64.16
74615;BME280;63121;51.458;-0.110;2023-02-15T09:28:42;102252.31;;;10.61;64.14
74615;BME280;63121;51.458;-0.110;2023-02-15T09:31:13;102245.44;;;10.64;64.39
74615;BME280;63121;51.458;-0.110;2023-02-15T09:33:41;102246.41;;;10.72;64.03
74615;BME280;63121;51.458;-0.110;2023-02-15T09:36:16;102249.09;;;10.78;63.71
74615;BME280;63121;51.458;-0.110;2023-02-15T09:38:41;102253.53;;;10.92;63.31
74615;BME280;63121;51.458;-0.110;2023-02-15T09:44:12;102254.72;;;11.15;62.70
74615;BME280;63121;51.458;-0.110;2023-02-15T09:59:53;102254.03;;;12.31;59.75
74615;BME280;63121;51.458;-0.110;2023-02-15T10:05:15;102246.03;;;12.04;60.50
74615;BME280;63121;51.458;-0.110;2023-02-15T10:15:53;102236.44;;;11.87;60.66
74615;BME280;63121;51.458;-0.110;2023-02-15T10:19:08;102229.81;;;12.26;59.36
74615;BME280;63121;51.458;-0.110;2023-02-15T10:24:36;102223.94;;;12.56;58.47
74615;BME280;63121;51.458;-0.110;2023-02-15T10:27:12;102221.47;;;12.84;57.79
74615;BME280;63121;51.458;-0.110;2023-02-15T10:29:45;102221.34;;;12.58;58.48
74615;BME280;63121;51.458;-0.110;2023-02-15T10:32:22;102232.44;;;12.28;58.77
74615;BME280;63121;51.458;-0.110;2023-02-15T10:38:01;102228.47;;;13.11;57.23
74615;BME280;63121;51.458;-0.110;2023-02-15T10:43:17;102227.47;;;12.74;57.16
74615;BME280;63121;51.458;-0.110;2023-02-15T10:51:03;102234.59;;;13.33;55.33
74615;BME280;63121;51.458;-0.110;2023-02-15T10:56:36;102226.84;;;13.41;55.66
74615;BME280;63121;51.458;-0.110;2023-02-15T11:04:45;102222.53;;;13.85;53.93
74615;BME280;63121;51.458;-0.110;2023-02-15T11:07:19;102215.59;;;14.02;53.38
74615;BME280;63121;51.458;-0.110;2023-02-15T11:09:56;102209.56;;;13.65;54.12
74615;BME280;63121;51.458;-0.110;2023-02-15T11:12:27;102211.28;;;13.62;54.40
74615;BME280;63121;51.458;-0.110;2023-02-15T11:15:01;102206.94;;;13.74;53.75
74615;BME280;63121;51.458;-0.110;2023-02-15T11:17:42;102201.78;;;13.52;54.04
74615;BME280;63121;51.458;-0.110;2023-02-15T11:22:47;102190.47;;;14.15;52.26
74615;BME280;63121;51.458;-0.110;2023-02-15T11:25:24;102191.28;;;14.34;52.58
74615;BME280;63121;51.458;-0.110;2023-02-15T11:27:51;102194.84;;;13.90;52.62
74615;BME280;63121;51.458;-0.110;2023-02-15T11:30:25;102193.94;;;14.01;52.59
74615;BME280;63121;51.458;-0.110;2023-02-15T11:32:56;102180.13;;;13.96;52.04
74615;BME280;63121;51.458;-0.110;2023-02-15T11:38:12;102163.50;;;14.53;50.78
74615;BME280;63121;51.458;-0.110;2023-02-15T11:41:02;102155.75;;;14.40;50.73
74615;BME280;63121;51.458;-0.110;2023-02-15T11:46:03;102160.84;;;14.74;50.47
74615;BME280;63121;51.458;-0.110;2023-02-15T11:48:30;102159.81;;;14.98;49.63
74615;BME280;63121;51.458;-0.110;2023-02-15T11:50:56;102157.28;;;14.88;49.72
74615;BME280;63121;51.458;-0.110;2023-02-15T11:53:23;102159.19;;;14.59;49.73
74615;BME280;63121;51.458;-0.110;2023-02-15T11:55:53;102157.31;;;14.83;50.01
74615;BME280;63121;51.458;-0.110;2023-02-15T11:58:52;102143.66;;;14.35;50.79
74615;BME280;63121;51.458;-0.110;2023-02-15T12:03:53;102159.16;;;14.50;50.38
74615;BME280;63121;51.458;-0.110;2023-02-15T12:06:28;102162.63;;;14.54;50.15
74615;BME280;63121;51.458;-0.110;2023-02-15T12:11:38;102160.47;;;15.31;48.91
74615;BME280;63121;51.458;-0.110;2023-02-15T12:14:07;102174.25;;;15.42;48.51
74615;BME280;63121;51.458;-0.110;2023-02-15T12:16:48;102172.00;;;14.95;49.81
74615;BME280;63121;51.458;-0.110;2023-02-15T12:21:59;102148.47;;;15.07;49.50
74615;BME280;63121;51.458;-0.110;2023-02-15T12:27:01;102141.44;;;15.20;49.70
74615;BME280;63121;51.458;-0.110;2023-02-15T12:29:31;102141.34;;;15.37;49.03
74615;BME280;63121;51.458;-0.110;2023-02-15T12:31:59;102125.16;;;14.96;49.48
74615;BME280;63121;51.458;-0.110;2023-02-15T12:34:31;102135.41;;;15.21;49.50
74615;BME280;63121;51.458;-0.110;2023-02-15T12:37:02;102124.84;;;15.38;48.92
74615;BME280;63121;51.458;-0.110;2023-02-15T12:39:33;102114.81;;;15.92;47.43
74615;BME280;63121;51.458;-0.110;2023-02-15T12:42:01;102109.94;;;15.58;48.20
74615;BME280;63121;51.458;-0.110;2023-02-15T12:44:35;102125.88;;;15.15;49.09
74615;BME280;63121;51.458;-0.110;2023-02-15T12:47:17;102126.47;;;15.51;48.19
74615;BME280;63121;51.458;-0.110;2023-02-15T12:49:44;102128.16;;;15.57;47.64
74615;BME280;63121;51.458;-0.110;2023-02-15T12:54:46;102119.13;;;15.95;47.37
74615;BME280;63121;51.458;-0.110;2023-02-15T13:00:01;102111.88;;;16.20;46.93
74615;BME280;63121;51.458;-0.110;2023-02-15T13:02:34;102105.69;;;16.30;46.74
74615;BME280;63121;51.458;-0.110;2023-02-15T13:07:33;102104.63;;;16.45;45.90
74615;BME280;63121;51.458;-0.110;2023-02-15T13:09:59;102107.63;;;16.13;46.72
74615;BME280;63121;51.458;-0.110;2023-02-15T13:12:29;102099.47;;;15.61;47.24
74615;BME280;63121;51.458;-0.110;2023-02-15T13:14:59;102098.34;;;15.90;47.21
74615;BME280;63121;51.458;-0.110;2023-02-15T13:17:29;102088.38;;;16.23;46.30
74615;BME280;63121;51.458;-0.110;2023-02-15T13:20:20;102084.22;;;16.11;46.47
74615;BME280;63121;51.458;-0.110;2023-02-15T13:22:52;102076.88;;;16.39;46.46
74615;BME280;63121;51.458;-0.110;2023-02-15T13:25:21;102078.94;;;16.78;45.89
74615;BME280;63121;51.458;-0.110;2023-02-15T13:27:51;102078.78;;;16.28;46.44
74615;BME280;63121;51.458;-0.110;2023-02-15T13:30:34;102070.75;;;16.45;45.94
74615;BME280;63121;51.458;-0.110;2023-02-15T13:33:06;102072.59;;;16.35;45.57
74615;BME280;63121;51.458;-0.110;2023-02-15T13:35:47;102069.41;;;16.77;45.41
74615;BME280;63121;51.458;-0.110;2023-02-15T13:38:29;102063.75;;;16.49;45.72
74615;BME280;63121;51.458;-0.110;2023-02-15T13:41:04;102068.84;;;16.55;46.14
74615;BME280;63121;51.458;-0.110;2023-02-15T13:43:44;102060.09;;;16.59;45.39
74615;BME280;63121;51.458;-0.110;2023-02-15T13:46:23;102056.72;;;16.52;45.40
74615;BME280;63121;51.458;-0.110;2023-02-15T13:56:59;102039.22;;;16.62;45.63
74615;BME280;63121;51.458;-0.110;2023-02-15T13:59:46;102039.81;;;16.79;45.34
74615;BME280;63121;51.458;-0.110;2023-02-15T14:02:38;102032.47;;;17.06;44.73
74615;BME280;63121;51.458;-0.110;2023-02-15T14:08:12;102040.50;;;16.92;44.70
74615;BME280;63121;51.458;-0.110;2023-02-15T14:11:06;102039.75;;;16.85;45.16
74615;BME280;63121;51.458;-0.110;2023-02-15T14:13:48;102043.44;;;16.71;45.32
74615;BME280;63121;51.458;-0.110;2023-02-15T14:21:56;102038.44;;;17.11;44.26
74615;BME280;63121;51.458;-0.110;2023-02-15T14:24:32;102047.44;;;17.91;43.36
74615;BME280;63121;51.458;-0.110;2023-02-15T14:27:14;102044.72;;;17.49;43.59
74615;BME280;63121;51.458;-0.110;2023-02-15T14:29:59;102044.59;;;18.00;42.43
74615;BME280;63121;51.458;-0.110;2023-02-15T14:32:33;102036.28;;;18.23;41.77
74615;BME280;63121;51.458;-0.110;2023-02-15T14:35:08;102039.50;;;18.74;40.83
74615;BME280;63121;51.458;-0.110;2023-02-15T14:48:54;102032.81;;;19.32;39.68
74615;BME280;63121;51.458;-0.110;2023-02-15T14:59:40;102035.94;;;20.37;37.99
74615;BME280;63121;51.458;-0.110;2023-02-15T15:07:38;102035.59;;;20.76;37.04
74615;BME280;63121;51.458;-0.110;2023-02-15T15:10:32;102037.47;;;20.44;37.50
74615;BME280;63121;51.458;-0.110;2023-02-15T15:12:58;102040.63;;;20.56;37.73
74615;BME280;63121;51.458;-0.110;2023-02-15T15:15:46;102039.44;;;20.66;37.45
74615;BME280;63121;51.458;-0.110;2023-02-15T15:18:47;102035.00;;;20.68;37.31
74615;BME280;63121;51.458;-0.110;2023-02-15T15:35:36;102045.56;;;19.77;39.50
74615;BME280;63121;51.458;-0.110;2023-02-15T15:43:51;102051.19;;;19.30;40.53
74615;BME280;63121;51.458;-0.110;2023-02-15T15:46:41;102045.81;;;19.35;40.16
74615;BME280;63121;51.458;-0.110;2023-02-15T15:49:15;102043.66;;;19.51;40.34
74615;BME280;63121;51.458;-0.110;2023-02-15T15:51:43;102039.78;;;19.64;39.49